createdAt,value
2019-06-27T00:01:16.273Z,96.50
2019-06-27T00:03:44.018Z,96.50
2019-06-27T00:06:11.620Z,96.70
2019-06-27T00:08:39.213Z,96.80
2019-06-27T00:11:07.177Z,97.00
2019-06-27T00:13:34.838Z,96.80
2019-06-27T00:16:02.417Z,97.10
2019-06-27T00:18:29.996Z,97.30
2019-06-27T00:20:59.952Z,97.40
2019-06-27T00:23:28.060Z,97.50
2019-06-27T00:25:55.827Z,97.40
2019-06-27T00:28:23.692Z,97.50
2019-06-27T00:30:51.354Z,97.50
2019-06-27T00:33:19.207Z,97.50
2019-06-27T00:35:46.980Z,97.40
2019-06-27T00:38:17.194Z,97.50
2019-06-27T00:40:46.760Z,97.50
2019-06-27T00:43:14.481Z,97.50
2019-06-27T00:45:42.081Z,97.50
2019-06-27T00:48:09.828Z,97.40
2019-06-27T00:50:37.492Z,97.50
2019-06-27T00:53:05.169Z,97.50
2019-06-27T00:55:33.055Z,97.60
2019-06-27T00:58:01.061Z,97.60
2019-06-27T01:00:28.832Z,97.70
2019-06-27T01:02:56.455Z,97.80
2019-06-27T01:05:24.083Z,97.90
2019-06-27T01:07:51.881Z,98.10
2019-06-27T01:10:20.408Z,98.30
2019-06-27T01:12:48.028Z,98.40
2019-06-27T01:15:18.592Z,98.50
2019-06-27T01:17:46.834Z,98.50
2019-06-27T01:20:16.115Z,98.30
2019-06-27T01:22:43.645Z,98.30
2019-06-27T01:25:11.314Z,98.30
2019-06-27T01:27:40.014Z,98.40
2019-06-27T01:30:08.044Z,98.40
2019-06-27T01:32:35.691Z,98.60
2019-06-27T01:35:04.382Z,98.60
2019-06-27T01:37:32.087Z,98.70
2019-06-27T01:39:59.623Z,99.00
2019-06-27T01:42:27.201Z,99.10
2019-06-27T01:45:09.579Z,99.20
2019-06-27T01:47:37.157Z,99.30
2019-06-27T01:50:04.962Z,99.30
2019-06-27T01:52:32.604Z,99.30
2019-06-27T01:55:00.177Z,99.30
2019-06-27T01:57:27.804Z,99.20
2019-06-27T01:59:55.408Z,99.10
2019-06-27T02:02:22.999Z,99.00
2019-06-27T02:04:50.677Z,98.90
2019-06-27T02:07:18.258Z,98.90
2019-06-27T02:09:45.915Z,98.80
2019-06-27T02:12:13.458Z,98.90
2019-06-27T02:14:41.341Z,98.90
2019-06-27T02:17:08.929Z,98.90
2019-06-27T02:19:36.842Z,98.90
2019-06-27T02:22:04.576Z,98.90
2019-06-27T02:24:32.255Z,99.00
2019-06-27T02:26:59.864Z,99.10
2019-06-27T02:29:27.851Z,99.20
2019-06-27T02:31:55.447Z,99.10
2019-06-27T02:34:23.082Z,99.10
2019-06-27T02:36:51.178Z,99.10
2019-06-27T02:39:18.754Z,99.10
2019-06-27T02:41:46.710Z,99.10
2019-06-27T02:44:16.280Z,98.90
2019-06-27T02:46:43.870Z,98.90
2019-06-27T02:49:11.484Z,98.90
2019-06-27T02:51:41.786Z,98.90
2019-06-27T02:54:09.377Z,99.00
2019-06-27T02:56:37.295Z,99.00
2019-06-27T02:59:04.870Z,99.00
2019-06-27T03:01:32.476Z,99.20
2019-06-27T03:04:00.032Z,99.30
2019-06-27T03:06:27.636Z,99.50
2019-06-27T03:08:55.242Z,99.90
2019-06-27T03:11:22.935Z,99.90
2019-06-27T03:13:50.683Z,99.90
2019-06-27T03:16:18.358Z,99.90
2019-06-27T03:18:46.094Z,99.90
2019-06-27T03:21:13.799Z,99.90
2019-06-27T03:23:41.524Z,99.90
2019-06-27T03:26:19.366Z,99.90
2019-06-27T03:28:53.102Z,99.90
2019-06-27T03:31:19.946Z,99.90
2019-06-27T03:33:50.988Z,99.90
2019-06-27T03:36:22.125Z,99.90
2019-06-27T03:38:54.476Z,99.90
2019-06-27T03:41:22.212Z,99.90
2019-06-27T03:43:53.223Z,99.90
2019-06-27T03:46:21.267Z,99.90
2019-06-27T03:48:48.886Z,99.90
2019-06-27T03:51:16.608Z,99.90
2019-06-27T03:53:44.199Z,99.90
2019-06-27T03:56:11.790Z,99.80
2019-06-27T03:58:39.405Z,99.80
2019-06-27T04:01:07.014Z,99.70
2019-06-27T04:03:34.561Z,99.60
2019-06-27T04:06:02.156Z,99.50
2019-06-27T04:08:29.985Z,99.50
2019-06-27T04:10:57.644Z,99.40
2019-06-27T04:13:25.152Z,99.40
2019-06-27T04:15:52.843Z,99.50
2019-06-27T04:18:22.518Z,99.60
2019-06-27T04:20:50.046Z,99.80
2019-06-27T04:23:17.652Z,99.70
2019-06-27T04:25:45.256Z,99.90
2019-06-27T04:28:13.134Z,99.90
2019-06-27T04:30:40.742Z,99.80
2019-06-27T04:33:08.394Z,99.70
2019-06-27T04:35:36.000Z,99.60
2019-06-27T04:38:03.587Z,99.50
2019-06-27T04:40:31.118Z,99.40
2019-06-27T04:42:58.675Z,99.10
2019-06-27T04:45:39.030Z,98.80
2019-06-27T04:47:58.823Z,98.70
2019-06-27T04:50:27.005Z,98.50
2019-06-27T04:52:55.335Z,98.60
2019-06-27T04:55:23.292Z,98.50
2019-06-27T04:57:50.978Z,98.40
2019-06-27T05:00:27.067Z,98.50
2019-06-27T05:02:56.031Z,98.00
2019-06-27T05:14:23.654Z,97.50
2019-06-27T05:16:54.800Z,97.50
2019-06-27T05:19:22.677Z,97.30
2019-06-27T05:21:50.574Z,97.10
2019-06-27T05:24:21.725Z,97.00
2019-06-27T05:26:49.782Z,97.50
2019-06-27T05:29:20.743Z,97.80
2019-06-27T05:31:51.587Z,97.80
2019-06-27T05:34:19.613Z,97.60
2019-06-27T05:36:47.350Z,97.40
2019-06-27T05:39:15.464Z,97.30
2019-06-27T05:42:25.055Z,97.20
2019-06-27T05:44:57.473Z,97.00
2019-06-27T05:47:25.258Z,96.60
2019-06-27T05:49:53.052Z,96.40
2019-06-27T05:52:23.536Z,96.40
2019-06-27T05:54:59.607Z,96.30
2019-06-27T05:57:36.175Z,95.90
2019-06-27T06:00:27.534Z,95.80
2019-06-27T06:02:50.779Z,95.60
2019-06-27T06:05:24.853Z,95.30
2019-06-27T06:08:00.664Z,95.70
2019-06-27T06:10:37.264Z,95.60
2019-06-27T06:13:09.647Z,95.00
2019-06-27T06:15:37.436Z,95.20
2019-06-27T06:18:05.059Z,96.00
2019-06-27T06:20:35.204Z,96.10
2019-06-27T06:23:03.204Z,96.10
2019-06-27T06:25:32.981Z,95.60
2019-06-27T06:28:01.201Z,95.30
2019-06-27T06:30:44.845Z,94.80
2019-06-27T06:33:12.563Z,94.80
2019-06-27T06:35:40.296Z,94.20
2019-06-27T06:38:07.906Z,93.60
2019-06-27T06:40:41.101Z,93.10
2019-06-27T06:43:08.802Z,93.10
2019-06-27T06:45:44.859Z,93.40
2019-06-27T06:48:12.455Z,95.00
2019-06-27T06:50:40.458Z,94.50
2019-06-27T06:53:08.289Z,93.90
2019-06-27T06:55:35.889Z,94.60
2019-06-27T07:02:27.876Z,94.00
2019-06-27T07:04:56.343Z,93.00
2019-06-27T07:07:27.354Z,93.10
2019-06-27T07:10:01.326Z,92.70
2019-06-27T07:12:29.084Z,92.30
2019-06-27T07:15:02.470Z,91.70
2019-06-27T07:17:43.376Z,91.20
2019-06-27T07:20:16.454Z,91.60
2019-06-27T07:23:05.060Z,92.20
2019-06-27T07:25:46.875Z,91.60
2019-06-27T07:28:26.387Z,91.40
2019-06-27T07:30:57.830Z,90.80
2019-06-27T07:33:26.415Z,91.30
2019-06-27T07:36:02.652Z,91.40
2019-06-27T07:38:34.735Z,91.30
2019-06-27T07:41:02.362Z,91.60
2019-06-27T07:43:30.043Z,91.90
2019-06-27T07:45:57.796Z,92.10
2019-06-27T07:51:19.044Z,93.10
2019-06-27T07:53:54.774Z,91.50
2019-06-27T07:56:29.300Z,91.70
2019-06-27T07:59:14.048Z,91.70
2019-06-27T08:02:33.036Z,91.70
2019-06-27T08:05:09.048Z,90.50
2019-06-27T08:07:38.067Z,90.00
2019-06-27T08:10:06.273Z,90.10
2019-06-27T08:12:51.063Z,89.40
2019-06-27T08:15:19.927Z,90.60
2019-06-27T08:18:17.602Z,90.90
2019-06-27T08:20:50.558Z,90.60
2019-06-27T08:26:50.000Z,89.00
2019-06-27T08:29:30.653Z,88.80
2019-06-27T08:32:15.887Z,87.90
2019-06-27T08:34:54.264Z,87.00
2019-06-27T08:37:22.101Z,88.60
2019-06-27T08:39:49.717Z,87.40
2019-06-27T08:42:17.711Z,86.80
2019-06-27T08:44:45.962Z,88.10
2019-06-27T08:47:13.726Z,88.90
2019-06-27T08:49:41.549Z,86.00
2019-06-27T08:52:09.320Z,86.80
2019-06-27T08:54:40.204Z,86.50
2019-06-27T08:57:08.131Z,87.70
2019-06-27T08:59:36.620Z,88.80
2019-06-27T09:02:09.251Z,89.30
2019-06-27T09:04:35.714Z,89.80
2019-06-27T09:07:04.652Z,90.70
2019-06-27T09:09:34.718Z,91.30
2019-06-27T09:12:07.880Z,91.60
2019-06-27T09:15:16.814Z,90.30
2019-06-27T09:17:55.176Z,90.00
2019-06-27T09:24:06.670Z,90.50
2019-06-27T09:27:17.463Z,87.70
2019-06-27T09:29:53.660Z,88.30
2019-06-27T09:32:36.492Z,88.60
2019-06-27T09:35:11.027Z,90.00
2019-06-27T09:37:39.410Z,89.70
2019-06-27T09:40:11.956Z,88.90
2019-06-27T09:42:40.070Z,89.00
2019-06-27T09:45:11.460Z,89.20
2019-06-27T09:47:39.487Z,87.90
2019-06-27T09:50:08.244Z,88.50
2019-06-27T09:52:40.926Z,89.60
2019-06-27T09:55:09.571Z,89.50
2019-06-27T09:57:40.939Z,90.20
2019-06-27T10:00:10.043Z,89.20
2019-06-27T10:02:58.379Z,88.60
2019-06-27T10:05:26.895Z,89.00
2019-06-27T10:08:25.584Z,87.00
2019-06-27T10:10:57.511Z,89.00
2019-06-27T10:13:25.803Z,87.30
2019-06-27T10:15:54.121Z,87.30
2019-06-27T10:18:23.687Z,87.80
2019-06-27T10:20:56.226Z,86.20
2019-06-27T10:23:24.612Z,86.70
2019-06-27T10:25:52.711Z,86.80
2019-06-27T10:28:26.837Z,88.40
2019-06-27T10:30:54.780Z,89.10
2019-06-27T10:33:24.772Z,87.60
2019-06-27T10:35:52.843Z,88.00
2019-06-27T10:38:20.937Z,87.40
2019-06-27T10:40:49.131Z,87.60
2019-06-27T10:43:17.392Z,86.10
2019-06-27T10:45:47.414Z,84.00
2019-06-27T10:48:17.823Z,84.20
2019-06-27T10:50:48.132Z,85.70
2019-06-27T10:53:16.437Z,83.90
2019-06-27T10:55:44.605Z,84.40
2019-06-27T10:58:15.344Z,84.20
2019-06-27T11:00:43.770Z,83.60
2019-06-27T11:03:17.245Z,83.80
2019-06-27T11:05:45.555Z,84.40
2019-06-27T11:08:17.924Z,81.60
2019-06-27T11:10:51.679Z,83.90
2019-06-27T11:13:19.625Z,80.70
2019-06-27T11:15:52.400Z,83.60
2019-06-27T11:18:21.551Z,85.40
2019-06-27T11:20:49.624Z,84.00
2019-06-27T11:23:17.745Z,82.30
2019-06-27T11:25:46.016Z,81.90
2019-06-27T11:28:13.793Z,82.60
2019-06-27T11:30:50.491Z,83.00
2019-06-27T11:33:31.827Z,83.50
2019-06-27T11:35:49.302Z,81.50
2019-06-27T11:38:19.327Z,82.00
2019-06-27T11:40:47.003Z,84.40
2019-06-27T11:43:17.610Z,82.50
2019-06-27T11:45:45.641Z,82.90
2019-06-27T11:48:13.358Z,82.40
2019-06-27T11:50:41.094Z,82.60
2019-06-27T11:53:08.873Z,83.80
2019-06-27T11:55:36.934Z,81.80
2019-06-27T11:58:04.916Z,82.70
2019-06-27T12:00:32.811Z,81.60
2019-06-27T12:03:01.542Z,81.20
2019-06-27T12:05:29.286Z,79.50
2019-06-27T12:07:56.934Z,79.40
2019-06-27T12:10:24.795Z,77.50
2019-06-27T12:12:52.641Z,78.50
2019-06-27T12:15:20.423Z,79.00
2019-06-27T12:17:48.523Z,80.20
2019-06-27T12:20:16.580Z,77.80
2019-06-27T12:22:46.361Z,76.40
2019-06-27T12:25:14.663Z,77.70
2019-06-27T12:27:42.269Z,75.50
2019-06-27T12:30:10.260Z,76.20
2019-06-27T12:32:51.597Z,76.60
2019-06-27T12:35:12.923Z,76.90
2019-06-27T12:37:40.549Z,78.60
2019-06-27T12:40:10.032Z,79.10
2019-06-27T12:42:39.004Z,78.90
2019-06-27T12:45:08.344Z,79.50
2019-06-27T12:47:38.553Z,77.70
2019-06-27T12:50:06.614Z,78.90
2019-06-27T12:52:37.694Z,80.00
2019-06-27T12:55:05.464Z,77.50
2019-06-27T12:57:33.020Z,77.60
2019-06-27T13:00:00.579Z,76.70
2019-06-27T13:02:28.204Z,75.80
2019-06-27T13:04:55.795Z,77.00
2019-06-27T13:07:23.396Z,76.30
2019-06-27T13:09:51.007Z,77.00
2019-06-27T13:12:18.758Z,76.70
2019-06-27T13:14:48.948Z,75.50
2019-06-27T13:17:16.780Z,74.50
2019-06-27T13:19:44.375Z,75.10
2019-06-27T13:22:13.089Z,78.30
2019-06-27T13:24:41.220Z,77.90
2019-06-27T13:27:09.235Z,78.10
2019-06-27T13:29:36.909Z,76.20
2019-06-27T13:32:04.565Z,74.40
2019-06-27T13:34:40.254Z,75.70
2019-06-27T13:37:10.290Z,76.10
2019-06-27T13:39:38.370Z,74.80
2019-06-27T13:42:06.004Z,77.30
2019-06-27T13:44:36.754Z,76.60
2019-06-27T13:47:05.665Z,75.80
2019-06-27T13:49:35.447Z,77.20
2019-06-27T13:52:03.586Z,76.00
2019-06-27T13:54:35.099Z,75.50
2019-06-27T13:58:28.605Z,74.40
2019-06-27T14:08:06.547Z,77.00
2019-06-27T14:10:49.195Z,75.80
2019-06-27T14:14:00.823Z,76.10
2019-06-27T14:17:06.982Z,77.20
2019-06-27T14:20:20.079Z,73.80
2019-06-27T14:27:27.004Z,75.60
2019-06-27T14:30:36.525Z,74.20
2019-06-27T14:37:22.671Z,74.70
2019-06-27T14:39:58.874Z,76.60
2019-06-27T14:42:30.620Z,74.00
2019-06-27T14:45:05.790Z,74.50
2019-06-27T14:47:40.511Z,75.70
2019-06-27T14:50:11.555Z,75.40
2019-06-27T14:52:46.569Z,76.60
2019-06-27T14:56:01.237Z,77.70
2019-06-27T14:58:50.139Z,78.00
2019-06-27T15:01:22.986Z,77.80
2019-06-27T15:04:03.208Z,79.00
2019-06-27T15:06:31.351Z,78.20
2019-06-27T15:09:02.503Z,78.10
2019-06-27T15:11:32.997Z,79.20
2019-06-27T15:14:04.929Z,79.40
2019-06-27T15:16:32.682Z,80.10
2019-06-27T15:19:00.430Z,80.00
2019-06-27T15:21:28.041Z,80.30
2019-06-27T15:23:58.223Z,81.10
2019-06-27T15:26:30.050Z,81.50
2019-06-27T15:28:57.992Z,80.50
2019-06-27T15:31:25.908Z,80.20
2019-06-27T15:33:53.671Z,80.60
2019-06-27T15:36:21.525Z,80.50
2019-06-27T15:38:49.114Z,81.20
2019-06-27T15:41:16.787Z,82.00
2019-06-27T15:43:44.361Z,82.60
2019-06-27T15:46:11.989Z,83.00
2019-06-27T15:48:39.616Z,83.40
2019-06-27T15:51:07.310Z,83.50
2019-06-27T15:53:34.875Z,83.20
2019-06-27T15:56:02.489Z,83.10
2019-06-27T15:58:30.103Z,83.30
2019-06-27T16:00:57.739Z,82.60
2019-06-27T16:03:25.359Z,83.30
2019-06-27T16:06:08.620Z,84.80
2019-06-27T16:08:25.126Z,84.80
2019-06-27T16:10:52.735Z,84.40
2019-06-27T16:13:20.348Z,83.80
2019-06-27T16:15:47.934Z,83.90
2019-06-27T16:18:23.651Z,83.50
2019-06-27T16:20:51.565Z,84.10
2019-06-27T16:23:19.221Z,84.40
2019-06-27T16:25:46.953Z,84.80
2019-06-27T16:28:18.444Z,83.70
2019-06-27T16:30:46.373Z,83.30
2019-06-27T16:33:13.978Z,83.00
2019-06-27T16:35:41.883Z,83.80
2019-06-27T16:38:09.517Z,83.30
2019-06-27T16:40:37.200Z,82.60
2019-06-27T16:43:04.821Z,83.10
2019-06-27T16:45:32.495Z,82.30
2019-06-27T16:48:00.239Z,81.90
2019-06-27T16:50:27.966Z,81.40
2019-06-27T16:53:15.802Z,81.60
2019-06-27T16:55:43.602Z,82.10
2019-06-27T16:58:11.255Z,82.10
2019-06-27T17:00:40.914Z,82.30
2019-06-27T17:03:09.338Z,82.10
2019-06-27T17:05:37.022Z,81.20
2019-06-27T17:08:04.642Z,81.20
2019-06-27T17:10:32.287Z,81.10
2019-06-27T17:13:00.003Z,81.90
2019-06-27T17:15:27.642Z,81.30
2019-06-27T17:17:55.365Z,80.30
2019-06-27T17:20:23.021Z,80.10
2019-06-27T17:22:50.829Z,79.90
2019-06-27T17:25:18.471Z,78.60
2019-06-27T17:27:46.163Z,79.10
2019-06-27T17:30:15.556Z,79.50
2019-06-27T17:32:43.164Z,78.10
2019-06-27T17:35:11.333Z,78.80
2019-06-27T17:37:38.911Z,78.00
2019-06-27T17:40:10.116Z,77.20
2019-06-27T17:42:37.747Z,76.80
2019-06-27T17:45:05.968Z,75.50
2019-06-27T17:47:33.596Z,74.60
2019-06-27T17:50:01.265Z,74.60
2019-06-27T17:52:31.412Z,73.70
2019-06-27T17:54:58.656Z,73.40
2019-06-27T17:57:26.813Z,71.80
2019-06-27T17:59:54.543Z,72.00
2019-06-27T18:02:22.251Z,72.00
2019-06-27T18:04:49.948Z,71.10
2019-06-27T18:07:17.658Z,71.40
2019-06-27T18:09:45.568Z,71.40
2019-06-27T18:12:13.632Z,70.40
2019-06-27T18:14:41.313Z,70.50
2019-06-27T18:17:09.991Z,70.40
2019-06-27T18:19:37.795Z,71.60
2019-06-27T18:22:05.496Z,71.20
2019-06-27T18:24:33.537Z,71.10
2019-06-27T18:27:01.374Z,69.40
2019-06-27T18:29:29.044Z,69.90
2019-06-27T18:31:56.862Z,70.30
2019-06-27T18:34:24.645Z,69.50
2019-06-27T18:36:52.348Z,69.30
2019-06-27T18:39:20.172Z,68.90
2019-06-27T18:41:50.930Z,68.90
2019-06-27T18:44:18.878Z,68.60
2019-06-27T18:46:46.501Z,69.00
2019-06-27T18:49:14.266Z,69.10
2019-06-27T18:51:41.959Z,67.60
2019-06-27T18:54:09.706Z,68.90
2019-06-27T18:56:37.470Z,68.90
2019-06-27T18:59:05.216Z,71.10
2019-06-27T19:01:32.984Z,68.80
2019-06-27T19:04:00.853Z,69.00
2019-06-27T19:06:28.505Z,69.30
2019-06-27T19:08:56.241Z,69.20
2019-06-27T19:11:24.031Z,70.40
2019-06-27T19:13:51.673Z,70.90
2019-06-27T19:16:19.552Z,70.70
2019-06-27T19:18:51.198Z,70.80
2019-06-27T19:21:40.963Z,70.00
2019-06-27T19:24:35.308Z,68.70
2019-06-27T19:27:05.061Z,70.80
2019-06-27T19:29:32.736Z,69.00
2019-06-27T19:32:00.494Z,69.60
2019-06-27T19:34:28.260Z,70.90
2019-06-27T19:36:56.014Z,69.10
2019-06-27T19:39:23.654Z,70.50
2019-06-27T19:41:51.764Z,71.60
2019-06-27T19:44:19.365Z,70.50
2019-06-27T19:46:47.050Z,70.50
2019-06-27T19:49:16.801Z,70.10
2019-06-27T19:51:46.169Z,70.30
2019-06-27T19:54:13.783Z,71.00
2019-06-27T19:56:44.832Z,71.10
2019-06-27T19:59:12.416Z,73.30
2019-06-27T20:01:40.103Z,70.60
2019-06-27T20:04:07.933Z,72.00
2019-06-27T20:06:35.726Z,71.90
2019-06-27T20:09:04.492Z,70.40
2019-06-27T20:11:32.220Z,72.00
2019-06-27T20:14:00.119Z,71.70
2019-06-27T20:16:27.774Z,70.50
2019-06-27T20:18:55.386Z,70.60
2019-06-27T20:21:23.054Z,70.60
2019-06-27T20:23:50.610Z,70.90
2019-06-27T20:26:18.149Z,71.20
2019-06-27T20:28:47.755Z,73.50
2019-06-27T20:31:15.413Z,71.30
2019-06-27T20:33:42.967Z,72.10
2019-06-27T20:36:10.662Z,72.00
2019-06-27T20:38:38.382Z,72.10
2019-06-27T20:41:06.036Z,71.70
2019-06-27T20:43:33.678Z,73.40
2019-06-27T20:46:01.328Z,71.30
2019-06-27T20:48:28.975Z,74.20
2019-06-27T20:50:56.838Z,71.70
2019-06-27T20:53:24.447Z,72.00
2019-06-27T20:55:52.109Z,73.10
2019-06-27T20:58:19.823Z,72.50
2019-06-27T21:00:47.593Z,72.60
2019-06-27T21:03:15.531Z,71.70
2019-06-27T21:05:44.465Z,72.30
2019-06-27T21:08:12.171Z,73.10
2019-06-27T21:10:39.812Z,73.70
2019-06-27T21:13:08.441Z,78.40
2019-06-27T21:15:38.893Z,77.50
2019-06-27T21:18:17.469Z,77.90
2019-06-27T21:20:36.600Z,76.20
2019-06-27T21:23:04.272Z,73.00
2019-06-27T21:25:31.784Z,72.90
2019-06-27T21:27:59.685Z,76.50
2019-06-27T21:30:27.544Z,73.90
2019-06-27T21:32:55.071Z,72.50
2019-06-27T21:35:22.750Z,71.80
2019-06-27T21:37:50.365Z,75.30
2019-06-27T21:40:18.122Z,71.70
2019-06-27T21:42:45.754Z,70.20
2019-06-27T21:45:13.792Z,72.50
2019-06-27T21:47:41.399Z,69.80
2019-06-27T21:50:09.313Z,74.70
2019-06-27T21:52:36.969Z,73.10
2019-06-27T21:55:04.787Z,73.40
2019-06-27T21:57:32.335Z,73.90
2019-06-27T21:59:59.911Z,74.90
2019-06-27T22:02:27.548Z,76.70
2019-06-27T22:04:55.086Z,75.50
2019-06-27T22:07:23.943Z,77.10
2019-06-27T22:09:51.677Z,76.40
2019-06-27T22:12:19.356Z,76.00
2019-06-27T22:14:47.054Z,77.00
2019-06-27T22:17:16.819Z,76.40
2019-06-27T22:19:44.434Z,77.00
2019-06-27T22:22:12.241Z,78.10
2019-06-27T22:24:39.882Z,79.10
2019-06-27T22:27:07.452Z,80.20
2019-06-27T22:29:35.480Z,80.40
2019-06-27T22:32:03.102Z,81.10
2019-06-27T22:34:30.855Z,81.10
2019-06-27T22:37:02.632Z,81.80
2019-06-27T22:39:49.065Z,81.60
2019-06-27T22:42:34.683Z,81.90
2019-06-27T22:45:20.234Z,81.90
2019-06-27T22:48:05.894Z,81.30
2019-06-27T22:51:11.094Z,81.80
2019-06-27T22:53:49.241Z,82.60
2019-06-27T22:56:16.821Z,83.40
2019-06-27T22:58:44.517Z,82.90
2019-06-27T23:01:12.205Z,83.20
2019-06-27T23:03:39.744Z,85.50
2019-06-27T23:06:07.390Z,83.70
2019-06-27T23:08:35.147Z,85.10
2019-06-27T23:11:02.746Z,87.00
2019-06-27T23:13:30.340Z,85.90
2019-06-27T23:15:57.959Z,84.50
2019-06-27T23:18:25.554Z,84.70
2019-06-27T23:20:53.127Z,86.20
2019-06-27T23:23:22.891Z,86.10
2019-06-27T23:25:50.516Z,86.40
2019-06-27T23:28:18.154Z,85.50
2019-06-27T23:30:45.824Z,85.60
2019-06-27T23:33:13.337Z,85.60
2019-06-27T23:35:41.085Z,86.00
2019-06-27T23:38:08.989Z,85.70
2019-06-27T23:40:36.577Z,85.60
2019-06-27T23:43:04.576Z,85.80
2019-06-27T23:45:32.174Z,85.50
2019-06-27T23:47:59.832Z,85.80
2019-06-27T23:50:29.612Z,86.20
2019-06-27T23:52:57.164Z,85.80
2019-06-27T23:55:24.723Z,85.30
2019-06-27T23:57:52.407Z,86.10
